sensor_id;sensor_type;location;lat;lon;timestamp;temperature;humidity
38854;DHT22;24606;51.992;4.198;2022-12-18T00:04:21;15.10;52.20
38854;DHT22;24606;51.992;4.198;2022-12-18T00:09:23;15.00;52.30
38854;DHT22;24606;51.992;4.198;2022-12-18T00:14:25;15.00;52.20
38854;DHT22;24606;51.992;4.198;2022-12-18T00:19:28;15.00;52.10
38854;DHT22;24606;51.992;4.198;2022-12-18T00:24:31;15.00;52.20
38854;DHT22;24606;51.992;4.198;2022-12-18T00:29:32;14.90;52.10
38854;DHT22;24606;51.992;4.198;2022-12-18T00:34:36;15.00;52.10
38854;DHT22;24606;51.992;4.198;2022-12-18T00:39:38;15.00;52.10
38854;DHT22;24606;51.992;4.198;2022-12-18T00:44:39;14.90;52.20
38854;DHT22;24606;51.992;4.198;2022-12-18T00:49:43;14.90;52.20
38854;DHT22;24606;51.992;4.198;2022-12-18T00:54:45;14.90;52.20
38854;DHT22;24606;51.992;4.198;2022-12-18T00:59:47;14.80;52.20
38854;DHT22;24606;51.992;4.198;2022-12-18T01:04:51;14.90;52.10
38854;DHT22;24606;51.992;4.198;2022-12-18T01:09:53;14.80;52.20
38854;DHT22;24606;51.992;4.198;2022-12-18T01:14:54;14.80;52.20
38854;DHT22;24606;51.992;4.198;2022-12-18T01:19:58;14.80;52.10
38854;DHT22;24606;51.992;4.198;2022-12-18T01:25:00;14.80;52.00
38854;DHT22;24606;51.992;4.198;2022-12-18T01:30:02;14.70;52.10
38854;DHT22;24606;51.992;4.198;2022-12-18T01:35:07;14.70;52.00
38854;DHT22;24606;51.992;4.198;2022-12-18T01:40:09;14.70;52.00
38854;DHT22;24606;51.992;4.198;2022-12-18T01:45:29;14.70;52.00
38854;DHT22;24606;51.992;4.198;2022-12-18T01:50:37;14.70;52.00
38854;DHT22;24606;51.992;4.198;2022-12-18T01:55:42;14.70;51.90
38854;DHT22;24606;51.992;4.198;2022-12-18T02:00:45;14.70;52.10
38854;DHT22;24606;51.992;4.198;2022-12-18T02:05:54;14.70;52.00
38854;DHT22;24606;51.992;4.198;2022-12-18T02:11:03;14.70;52.00
38854;DHT22;24606;51.992;4.198;2022-12-18T02:16:13;14.70;52.00
38854;DHT22;24606;51.992;4.198;2022-12-18T02:21:25;14.60;51.90
38854;DHT22;24606;51.992;4.198;2022-12-18T02:26:33;14.60;51.90
38854;DHT22;24606;51.992;4.198;2022-12-18T02:31:39;14.60;51.90
38854;DHT22;24606;51.992;4.198;2022-12-18T02:36:44;14.60;52.00
38854;DHT22;24606;51.992;4.198;2022-12-18T02:41:48;14.60;51.90
38854;DHT22;24606;51.992;4.198;2022-12-18T02:46:51;14.60;51.80
38854;DHT22;24606;51.992;4.198;2022-12-18T02:51:59;14.60;51.70
38854;DHT22;24606;51.992;4.198;2022-12-18T02:57:12;14.50;51.70
38854;DHT22;24606;51.992;4.198;2022-12-18T03:02:20;14.50;51.70
38854;DHT22;24606;51.992;4.198;2022-12-18T03:07:32;14.50;51.80
38854;DHT22;24606;51.992;4.198;2022-12-18T03:12:40;14.50;51.70
38854;DHT22;24606;51.992;4.198;2022-12-18T03:17:48;14.50;52.20
38854;DHT22;24606;51.992;4.198;2022-12-18T03:22:56;14.50;51.60
38854;DHT22;24606;51.992;4.198;2022-12-18T03:28:02;14.50;51.60
38854;DHT22;24606;51.992;4.198;2022-12-18T03:33:08;14.50;51.60
38854;DHT22;24606;51.992;4.198;2022-12-18T03:38:11;14.40;51.60
38854;DHT22;24606;51.992;4.198;2022-12-18T03:43:20;14.40;51.50
38854;DHT22;24606;51.992;4.198;2022-12-18T03:48:27;14.40;51.60
38854;DHT22;24606;51.992;4.198;2022-12-18T03:53:35;14.40;51.60
38854;DHT22;24606;51.992;4.198;2022-12-18T03:58:41;14.40;51.50
38854;DHT22;24606;51.992;4.198;2022-12-18T04:03:46;14.40;51.50
38854;DHT22;24606;51.992;4.198;2022-12-18T04:08:50;14.30;51.50
38854;DHT22;24606;51.992;4.198;2022-12-18T04:13:57;14.30;51.50
38854;DHT22;24606;51.992;4.198;2022-12-18T04:18:59;14.30;51.40
38854;DHT22;24606;51.992;4.198;2022-12-18T04:24:01;14.30;51.40
38854;DHT22;24606;51.992;4.198;2022-12-18T04:29:04;14.30;51.40
38854;DHT22;24606;51.992;4.198;2022-12-18T04:34:06;14.30;51.40
38854;DHT22;24606;51.992;4.198;2022-12-18T04:39:08;14.30;51.30
38854;DHT22;24606;51.992;4.198;2022-12-18T04:44:11;14.20;51.30
38854;DHT22;24606;51.992;4.198;2022-12-18T04:49:13;14.30;51.30
38854;DHT22;24606;51.992;4.198;2022-12-18T04:54:15;14.20;51.30
38854;DHT22;24606;51.992;4.198;2022-12-18T04:59:18;14.20;51.20
38854;DHT22;24606;51.992;4.198;2022-12-18T05:04:20;14.20;51.10
38854;DHT22;24606;51.992;4.198;2022-12-18T05:09:23;14.20;51.10
38854;DHT22;24606;51.992;4.198;2022-12-18T05:14:26;14.20;51.10
38854;DHT22;24606;51.992;4.198;2022-12-18T05:19:29;14.20;50.90
38854;DHT22;24606;51.992;4.198;2022-12-18T05:24:31;14.30;50.90
38854;DHT22;24606;51.992;4.198;2022-12-18T05:29:35;14.40;50.80
38854;DHT22;24606;51.992;4.198;2022-12-18T05:34:37;14.50;50.60
38854;DHT22;24606;51.992;4.198;2022-12-18T05:39:39;14.50;50.40
38854;DHT22;24606;51.992;4.198;2022-12-18T05:44:43;14.60;50.60
38854;DHT22;24606;51.992;4.198;2022-12-18T05:49:44;14.60;50.50
38854;DHT22;24606;51.992;4.198;2022-12-18T05:54:46;14.60;50.60
38854;DHT22;24606;51.992;4.198;2022-12-18T05:59:50;14.60;50.60
38854;DHT22;24606;51.992;4.198;2022-12-18T06:04:51;14.60;50.50
38854;DHT22;24606;51.992;4.198;2022-12-18T06:09:53;14.70;50.50
38854;DHT22;24606;51.992;4.198;2022-12-18T06:14:56;14.70;50.60
38854;DHT22;24606;51.992;4.198;2022-12-18T06:19:58;14.60;50.60
38854;DHT22;24606;51.992;4.198;2022-12-18T06:25:00;14.70;50.60
38854;DHT22;24606;51.992;4.198;2022-12-18T06:30:04;14.70;50.60
38854;DHT22;24606;51.992;4.198;2022-12-18T06:35:07;14.70;50.50
38854;DHT22;24606;51.992;4.198;2022-12-18T06:40:09;14.70;50.60
38854;DHT22;24606;51.992;4.198;2022-12-18T06:45:13;14.70;51.10
38854;DHT22;24606;51.992;4.198;2022-12-18T06:50:15;14.80;50.50
38854;DHT22;24606;51.992;4.198;2022-12-18T06:55:17;14.80;50.50
38854;DHT22;24606;51.992;4.198;2022-12-18T07:00:20;14.70;50.50
38854;DHT22;24606;51.992;4.198;2022-12-18T07:15:28;14.60;50.20
38854;DHT22;24606;51.992;4.198;2022-12-18T07:20:30;14.60;50.50
38854;DHT22;24606;51.992;4.198;2022-12-18T07:25:33;14.60;50.60
38854;DHT22;24606;51.992;4.198;2022-12-18T07:30:38;14.60;50.60
38854;DHT22;24606;51.992;4.198;2022-12-18T07:35:40;14.60;50.60
38854;DHT22;24606;51.992;4.198;2022-12-18T07:40:42;14.50;50.70
38854;DHT22;24606;51.992;4.198;2022-12-18T07:45:45;14.60;50.60
38854;DHT22;24606;51.992;4.198;2022-12-18T07:50:47;14.50;50.60
38854;DHT22;24606;51.992;4.198;2022-12-18T07:55:54;14.60;50.50
38854;DHT22;24606;51.992;4.198;2022-12-18T08:01:03;14.50;51.10
38854;DHT22;24606;51.992;4.198;2022-12-18T08:06:08;14.50;50.60
38854;DHT22;24606;51.992;4.198;2022-12-18T08:11:10;14.50;50.60
38854;DHT22;24606;51.992;4.198;2022-12-18T08:16:13;14.50;50.60
38854;DHT22;24606;51.992;4.198;2022-12-18T08:21:17;14.50;50.70
38854;DHT22;24606;51.992;4.198;2022-12-18T08:26:22;14.40;50.70
38854;DHT22;24606;51.992;4.198;2022-12-18T08:31:25;14.40;51.00
38854;DHT22;24606;51.992;4.198;2022-12-18T08:36:27;14.40;51.10
38854;DHT22;24606;51.992;4.198;2022-12-18T08:41:29;14.40;51.10
38854;DHT22;24606;51.992;4.198;2022-12-18T08:46:35;14.40;51.30
38854;DHT22;24606;51.992;4.198;2022-12-18T08:51:38;14.40;51.20
38854;DHT22;24606;51.992;4.198;2022-12-18T08:56:41;14.50;51.20
38854;DHT22;24606;51.992;4.198;2022-12-18T09:01:45;14.50;51.20
38854;DHT22;24606;51.992;4.198;2022-12-18T09:06:52;14.50;51.20
38854;DHT22;24606;51.992;4.198;2022-12-18T09:11:54;14.40;51.40
38854;DHT22;24606;51.992;4.198;2022-12-18T09:16:57;14.50;51.20
38854;DHT22;24606;51.992;4.198;2022-12-18T09:21:59;14.40;51.40
38854;DHT22;24606;51.992;4.198;2022-12-18T09:27:00;14.50;51.40
38854;DHT22;24606;51.992;4.198;2022-12-18T09:32:04;14.50;51.30
38854;DHT22;24606;51.992;4.198;2022-12-18T09:37:06;14.50;51.20
38854;DHT22;24606;51.992;4.198;2022-12-18T09:42:10;14.50;51.30
38854;DHT22;24606;51.992;4.198;2022-12-18T09:47:19;14.50;51.20
38854;DHT22;24606;51.992;4.198;2022-12-18T09:52:27;14.60;51.40
38854;DHT22;24606;51.992;4.198;2022-12-18T09:57:33;14.60;51.40
38854;DHT22;24606;51.992;4.198;2022-12-18T10:02:39;14.50;51.40
38854;DHT22;24606;51.992;4.198;2022-12-18T10:07:53;14.40;51.60
38854;DHT22;24606;51.992;4.198;2022-12-18T10:13:06;14.40;51.70
38854;DHT22;24606;51.992;4.198;2022-12-18T10:18:36;14.30;51.80
38854;DHT22;24606;51.992;4.198;2022-12-18T10:23:47;14.40;51.90
38854;DHT22;24606;51.992;4.198;2022-12-18T10:28:53;14.40;52.00
38854;DHT22;24606;51.992;4.198;2022-12-18T10:33:58;14.40;52.10
38854;DHT22;24606;51.992;4.198;2022-12-18T10:39:15;14.50;52.10
38854;DHT22;24606;51.992;4.198;2022-12-18T10:44:19;14.40;52.00
38854;DHT22;24606;51.992;4.198;2022-12-18T10:49:25;14.40;52.00
38854;DHT22;24606;51.992;4.198;2022-12-18T10:54:29;14.40;52.00
38854;DHT22;24606;51.992;4.198;2022-12-18T10:59:50;14.50;52.00
38854;DHT22;24606;51.992;4.198;2022-12-18T11:04:53;14.40;51.90
38854;DHT22;24606;51.992;4.198;2022-12-18T11:10:00;14.40;51.90
38854;DHT22;24606;51.992;4.198;2022-12-18T11:15:03;14.50;52.40
38854;DHT22;24606;51.992;4.198;2022-12-18T11:20:27;14.40;52.00
38854;DHT22;24606;51.992;4.198;2022-12-18T11:25:32;14.50;52.00
38854;DHT22;24606;51.992;4.198;2022-12-18T11:30:36;14.50;52.20
38854;DHT22;24606;51.992;4.198;2022-12-18T11:35:43;14.50;52.20
38854;DHT22;24606;51.992;4.198;2022-12-18T11:40:51;14.40;52.20
38854;DHT22;24606;51.992;4.198;2022-12-18T11:45:59;14.50;52.00
38854;DHT22;24606;51.992;4.198;2022-12-18T11:51:05;14.40;52.10
38854;DHT22;24606;51.992;4.198;2022-12-18T11:56:28;14.40;52.00
38854;DHT22;24606;51.992;4.198;2022-12-18T12:01:41;14.50;51.90
38854;DHT22;24606;51.992;4.198;2022-12-18T12:06:52;14.50;51.80
38854;DHT22;24606;51.992;4.198;2022-12-18T12:12:06;14.50;52.00
38854;DHT22;24606;51.992;4.198;2022-12-18T12:17:17;14.50;51.90
38854;DHT22;24606;51.992;4.198;2022-12-18T12:22:28;14.50;51.90
38854;DHT22;24606;51.992;4.198;2022-12-18T12:27:40;14.50;51.90
38854;DHT22;24606;51.992;4.198;2022-12-18T12:33:13;14.60;51.90
38854;DHT22;24606;51.992;4.198;2022-12-18T12:38:22;14.60;52.00
38854;DHT22;24606;51.992;4.198;2022-12-18T12:43:31;14.60;51.90
38854;DHT22;24606;51.992;4.198;2022-12-18T12:48:45;14.60;51.90
38854;DHT22;24606;51.992;4.198;2022-12-18T12:53:50;14.60;52.00
38854;DHT22;24606;51.992;4.198;2022-12-18T12:58:58;14.70;51.90
38854;DHT22;24606;51.992;4.198;2022-12-18T13:04:12;14.60;51.90
38854;DHT22;24606;51.992;4.198;2022-12-18T13:09:18;14.60;52.10
38854;DHT22;24606;51.992;4.198;2022-12-18T13:14:26;14.70;52.00
38854;DHT22;24606;51.992;4.198;2022-12-18T13:19:28;14.70;52.00
38854;DHT22;24606;51.992;4.198;2022-12-18T13:24:33;14.70;52.10
38854;DHT22;24606;51.992;4.198;2022-12-18T13:29:42;14.70;51.90
38854;DHT22;24606;51.992;4.198;2022-12-18T13:34:44;14.70;52.10
38854;DHT22;24606;51.992;4.198;2022-12-18T13:39:48;14.70;52.20
38854;DHT22;24606;51.992;4.198;2022-12-18T13:44:50;14.70;52.10
38854;DHT22;24606;51.992;4.198;2022-12-18T13:49:52;14.70;52.10
38854;DHT22;24606;51.992;4.198;2022-12-18T13:54:57;14.70;52.00
38854;DHT22;24606;51.992;4.198;2022-12-18T14:00:23;14.70;52.00
38854;DHT22;24606;51.992;4.198;2022-12-18T14:05:26;14.70;52.00
38854;DHT22;24606;51.992;4.198;2022-12-18T14:10:30;14.70;51.90
38854;DHT22;24606;51.992;4.198;2022-12-18T14:15:33;14.80;52.60
38854;DHT22;24606;51.992;4.198;2022-12-18T14:20:37;14.70;52.10
38854;DHT22;24606;51.992;4.198;2022-12-18T14:25:46;14.70;52.20
38854;DHT22;24606;51.992;4.198;2022-12-18T14:30:48;14.70;52.10
38854;DHT22;24606;51.992;4.198;2022-12-18T14:35:56;14.70;52.10
38854;DHT22;24606;51.992;4.198;2022-12-18T14:41:02;14.70;52.10
38854;DHT22;24606;51.992;4.198;2022-12-18T14:46:05;14.70;52.10
38854;DHT22;24606;51.992;4.198;2022-12-18T14:51:19;14.80;52.20
38854;DHT22;24606;51.992;4.198;2022-12-18T14:56:24;14.80;52.10
38854;DHT22;24606;51.992;4.198;2022-12-18T15:01:29;14.70;51.90
38854;DHT22;24606;51.992;4.198;2022-12-18T15:06:34;14.80;52.10
38854;DHT22;24606;51.992;4.198;2022-12-18T15:11:47;14.80;52.10
38854;DHT22;24606;51.992;4.198;2022-12-18T15:16:52;14.80;52.00
38854;DHT22;24606;51.992;4.198;2022-12-18T15:21:55;14.80;52.10
38854;DHT22;24606;51.992;4.198;2022-12-18T15:26:58;14.90;52.10
38854;DHT22;24606;51.992;4.198;2022-12-18T15:32:02;14.80;52.00
38854;DHT22;24606;51.992;4.198;2022-12-18T15:37:04;14.80;52.10
38854;DHT22;24606;51.992;4.198;2022-12-18T15:42:09;14.90;52.10
38854;DHT22;24606;51.992;4.198;2022-12-18T15:47:28;14.90;52.20
38854;DHT22;24606;51.992;4.198;2022-12-18T15:52:31;14.90;52.20
38854;DHT22;24606;51.992;4.198;2022-12-18T15:57:38;14.90;52.10
38854;DHT22;24606;51.992;4.198;2022-12-18T16:02:40;14.90;52.20
38854;DHT22;24606;51.992;4.198;2022-12-18T16:07:42;14.90;52.10
38854;DHT22;24606;51.992;4.198;2022-12-18T16:12:45;14.90;52.10
38854;DHT22;24606;51.992;4.198;2022-12-18T16:17:47;14.90;52.10
38854;DHT22;24606;51.992;4.198;2022-12-18T16:22:50;14.90;52.20
38854;DHT22;24606;51.992;4.198;2022-12-18T16:27:54;14.90;52.20
38854;DHT22;24606;51.992;4.198;2022-12-18T16:32:57;14.90;52.10
38854;DHT22;24606;51.992;4.198;2022-12-18T16:37:59;14.90;52.10
38854;DHT22;24606;51.992;4.198;2022-12-18T16:43:02;14.90;52.10
38854;DHT22;24606;51.992;4.198;2022-12-18T16:48:04;14.90;52.10
38854;DHT22;24606;51.992;4.198;2022-12-18T16:53:06;14.90;52.20
38854;DHT22;24606;51.992;4.198;2022-12-18T16:58:10;14.80;52.20
38854;DHT22;24606;51.992;4.198;2022-12-18T17:03:13;14.70;52.10
38854;DHT22;24606;51.992;4.198;2022-12-18T17:08:17;14.60;52.20
38854;DHT22;24606;51.992;4.198;2022-12-18T17:13:37;14.60;52.30
38854;DHT22;24606;51.992;4.198;2022-12-18T17:18:39;14.50;52.30
38854;DHT22;24606;51.992;4.198;2022-12-18T17:23:42;14.50;52.40
38854;DHT22;24606;51.992;4.198;2022-12-18T17:28:46;14.50;52.20
38854;DHT22;24606;51.992;4.198;2022-12-18T17:33:48;14.40;52.30
38854;DHT22;24606;51.992;4.198;2022-12-18T17:38:51;14.50;52.30
38854;DHT22;24606;51.992;4.198;2022-12-18T17:43:56;14.60;52.20
38854;DHT22;24606;51.992;4.198;2022-12-18T17:48:59;14.60;52.00
38854;DHT22;24606;51.992;4.198;2022-12-18T17:54:02;14.50;52.20
38854;DHT22;24606;51.992;4.198;2022-12-18T17:59:06;14.50;52.40
38854;DHT22;24606;51.992;4.198;2022-12-18T18:04:07;14.50;52.40
38854;DHT22;24606;51.992;4.198;2022-12-18T18:09:09;14.30;53.00
38854;DHT22;24606;51.992;4.198;2022-12-18T18:14:15;14.30;52.70
38854;DHT22;24606;51.992;4.198;2022-12-18T18:19:20;14.50;52.80
38854;DHT22;24606;51.992;4.198;2022-12-18T18:24:22;14.60;52.80
38854;DHT22;24606;51.992;4.198;2022-12-18T18:29:27;14.70;52.90
38854;DHT22;24606;51.992;4.198;2022-12-18T18:34:31;14.70;52.90
38854;DHT22;24606;51.992;4.198;2022-12-18T18:39:33;14.50;53.20
38854;DHT22;24606;51.992;4.198;2022-12-18T18:44:36;14.60;53.20
38854;DHT22;24606;51.992;4.198;2022-12-18T18:49:38;14.50;53.30
38854;DHT22;24606;51.992;4.198;2022-12-18T18:54:40;14.40;53.30
38854;DHT22;24606;51.992;4.198;2022-12-18T18:59:45;14.40;53.40
38854;DHT22;24606;51.992;4.198;2022-12-18T19:04:47;14.30;53.60
38854;DHT22;24606;51.992;4.198;2022-12-18T19:09:49;14.20;53.40
38854;DHT22;24606;51.992;4.198;2022-12-18T19:14:55;14.30;53.40
38854;DHT22;24606;51.992;4.198;2022-12-18T19:19:57;14.20;53.60
38854;DHT22;24606;51.992;4.198;2022-12-18T19:24:59;14.20;53.40
38854;DHT22;24606;51.992;4.198;2022-12-18T19:30:02;14.30;53.60
38854;DHT22;24606;51.992;4.198;2022-12-18T19:35:05;14.30;53.50
38854;DHT22;24606;51.992;4.198;2022-12-18T19:40:07;14.20;53.70
38854;DHT22;24606;51.992;4.198;2022-12-18T19:45:11;14.10;53.40
38854;DHT22;24606;51.992;4.198;2022-12-18T19:50:12;14.10;53.50
38854;DHT22;24606;51.992;4.198;2022-12-18T19:55:14;14.30;53.70
38854;DHT22;24606;51.992;4.198;2022-12-18T20:00:18;14.20;53.70
38854;DHT22;24606;51.992;4.198;2022-12-18T20:05:20;15.10;55.60
38854;DHT22;24606;51.992;4.198;2022-12-18T20:10:24;14.70;53.80
38854;DHT22;24606;51.992;4.198;2022-12-18T20:15:27;14.60;53.70
38854;DHT22;24606;51.992;4.198;2022-12-18T20:20:29;14.50;53.80
38854;DHT22;24606;51.992;4.198;2022-12-18T20:25:31;14.50;53.70
38854;DHT22;24606;51.992;4.198;2022-12-18T20:30:34;14.50;53.60
38854;DHT22;24606;51.992;4.198;2022-12-18T20:35:36;14.40;53.70
38854;DHT22;24606;51.992;4.198;2022-12-18T20:40:39;14.40;53.70
38854;DHT22;24606;51.992;4.198;2022-12-18T20:45:43;14.40;53.40
38854;DHT22;24606;51.992;4.198;2022-12-18T20:50:45;14.40;53.50
38854;DHT22;24606;51.992;4.198;2022-12-18T20:55:47;14.40;53.40
38854;DHT22;24606;51.992;4.198;2022-12-18T21:01:00;14.40;53.40
38854;DHT22;24606;51.992;4.198;2022-12-18T21:06:03;14.20;53.50
38854;DHT22;24606;51.992;4.198;2022-12-18T21:11:11;14.40;53.50
38854;DHT22;24606;51.992;4.198;2022-12-18T21:16:35;14.40;53.40
38854;DHT22;24606;51.992;4.198;2022-12-18T21:21:37;14.30;53.70
38854;DHT22;24606;51.992;4.198;2022-12-18T21:26:44;14.40;53.40
38854;DHT22;24606;51.992;4.198;2022-12-18T21:31:48;14.40;53.50
38854;DHT22;24606;51.992;4.198;2022-12-18T21:36:50;14.50;53.40
38854;DHT22;24606;51.992;4.198;2022-12-18T21:41:52;14.70;53.30
38854;DHT22;24606;51.992;4.198;2022-12-18T21:47:13;14.70;53.40
38854;DHT22;24606;51.992;4.198;2022-12-18T21:52:15;14.70;53.40
38854;DHT22;24606;51.992;4.198;2022-12-18T21:57:17;14.80;53.50
38854;DHT22;24606;51.992;4.198;2022-12-18T22:02:21;14.70;53.60
38854;DHT22;24606;51.992;4.198;2022-12-18T22:07:23;14.70;53.60
38854;DHT22;24606;51.992;4.198;2022-12-18T22:12:26;14.80;53.60
38854;DHT22;24606;51.992;4.198;2022-12-18T22:17:38;14.70;53.60
38854;DHT22;24606;51.992;4.198;2022-12-18T22:22:39;14.70;53.60
38854;DHT22;24606;51.992;4.198;2022-12-18T22:27:42;14.70;53.60
38854;DHT22;24606;51.992;4.198;2022-12-18T22:33:05;14.70;53.60
38854;DHT22;24606;51.992;4.198;2022-12-18T22:38:07;14.70;53.70
38854;DHT22;24606;51.992;4.198;2022-12-18T22:43:09;14.70;53.80
38854;DHT22;24606;51.992;4.198;2022-12-18T22:48:12;14.80;53.60
38854;DHT22;24606;51.992;4.198;2022-12-18T22:53:14;14.80;53.60
38854;DHT22;24606;51.992;4.198;2022-12-18T22:58:15;14.80;54.20
38854;DHT22;24606;51.992;4.198;2022-12-18T23:03:19;14.80;53.60
38854;DHT22;24606;51.992;4.198;2022-12-18T23:08:21;14.70;53.60
38854;DHT22;24606;51.992;4.198;2022-12-18T23:13:23;14.60;53.90
38854;DHT22;24606;51.992;4.198;2022-12-18T23:18:26;14.60;53.80
38854;DHT22;24606;51.992;4.198;2022-12-18T23:23:28;14.60;53.90
38854;DHT22;24606;51.992;4.198;2022-12-18T23:28:31;14.60;53.90
38854;DHT22;24606;51.992;4.198;2022-12-18T23:33:34;14.60;54.00
38854;DHT22;24606;51.992;4.198;2022-12-18T23:38:36;14.60;53.80
38854;DHT22;24606;51.992;4.198;2022-12-18T23:43:38;14.60;53.90
38854;DHT22;24606;51.992;4.198;2022-12-18T23:48:41;14.50;53.80
38854;DHT22;24606;51.992;4.198;2022-12-18T23:53:44;14.60;53.90
38854;DHT22;24606;51.992;4.198;2022-12-18T23:58:46;14.60;53.80
